MHLC/LCE METAR and TAF weather

Enter ICAO airport designator
Station Type Date Time Source
MHLC METAR 2022/08/12 15:00 UTC NOAA

MHLC 121500Z VRB02KT 9999 FEW026 BKN250 28/22 Q1014 A2994 NOSIG


Station Type Date Time Source
MHLC Decoded METAR 2022/08/12 15:00 UTC NOAA

La Ceiba Airport , Honduras (MHLC) 15-44N 086-52W 26M
Aug 12, 2022 - 11:00 AM EDT / 2022.08.12 1500 UTC
Wind: Variable at 2 MPH (2 KT):0
Visibility: greater than 7 mile(s):0
Sky conditions: mostly cloudy
Temperature: 82 F (28 C)
Dew Point: 71 F (22 C)
Relative Humidity: 69%
Pressure (altimeter): 29.94 in. Hg (1013 hPa)
ob: MHLC 121500Z VRB02KT 9999 FEW026 BKN250 28/22 Q1014 A2994 NOSIG
cycle: 15

Station Type Date Time Source
MHLC TAF 2022/08/12 12:31 UTC NOAA

TAF MHLC 121010Z 1212/1312 VRB04KT 9999 FEW024 BKN070 TX31/1219Z TN22/1312Z
BECMG 1217/1219 05012KT SCT028TCU
TEMPO 1220/1301 02008KT 8000 VCSH SCT028TCU BKN080
BECMG 1301/1303 VRB03KT 9999 NSW SCT026 SCT080

Example: see airport list